Pacific Princess — ZCDS3 — position and weather

sailwx.info

Track history (hours):
 
Tides and Currents Weather Stations Pressure Air Temp Water Temp Dewpoint Dewpoint Depression Visibility Wind Speed Wind Dir Waves Ship Positions

Pacific Princess (Bermuda)

Last reported at 2019-Jul-20 05:00 UTC. Time now 2019-Jul-20 13:29 UTC.
Position N 56°54' E 024°00'.

Length 180.5 m; beam 25.6 m; draft 6 m.

Type: Passenger vessel. MMSI: 310504000.

Wind from 270 at 5 knots

Barometer 1017.6 mb
Air temperature 18.0 ° C
Visibility: greater than 10.8 NM
Dewpoint 15.5 ° C
Water temperature 18.0 ° C

Date/timePositionNaut miles runAvg speedWind from/ knotsBaromVisibWave heightAir tempDewpointWater temp
2019-Jul-20 05:00N 56°54' E 024°00'51 9.2 270 / 51017.610.8 18.015.518.0
2019-Jul-19 23:28N 57°35' E 023°05'1715.7
2019-Jul-19 22:25N 57°47' E 022°44'614.4
2019-Jul-19 22:00N 57°50' E 022°34'815.2
2019-Jul-19 21:30N 57°47' E 022°21'815.2
2019-Jul-19 21:00N 57°43' E 022°09'714.7
2019-Jul-19 20:30N 57°40' E 021°57'714.4
2019-Jul-19 20:01N 57°39' E 021°43'612.3
2019-Jul-19 19:30N 57°37' E 021°32'914.9
2019-Jul-19 18:52N 57°31' E 021°19'815.2
2019-Jul-19 18:21N 57°26' E 021°08'1130.1
2019-Jul-19 18:00N 57°18' E 020°54'133132.7 320 / 61014.110.8 19.014.718.0
2019-Jul-19 17:00N 55°06' E 020°30'9516.9 320 / 81016.710.8 18.016.318.0
2019-Jul-19 11:23N 56°06' E 018°19'718.1
2019-Jul-19 11:00N 56°02' E 018°09'918.0
2019-Jul-19 10:30N 55°57' E 017°56'917.7
2019-Jul-19 10:00N 55°54' E 017°41'917.7
2019-Jul-19 09:30N 55°51' E 017°26'1917.5
2019-Jul-19 08:24N 55°46' E 016°53'717.4
2019-Jul-19 08:01N 55°45' E 016°41'917.7
2019-Jul-19 07:31N 55°43' E 016°26'918.0
2019-Jul-19 07:01N 55°40' E 016°10'918.0
2019-Jul-19 06:31N 55°38' E 015°55'917.9
2019-Jul-19 06:01N 55°36' E 015°39'917.9
2019-Jul-19 05:31N 55°33' E 015°24'917.7
2019-Jul-19 05:00N 55°30' E 015°10'11687.2
2019-Jul-19 05:00N 55°24' E 014°54'2 4.4 140 / 111014.710.8 18.016.318.0
2019-Jul-19 04:31N 55°26' E 014°56'917.7
2019-Jul-19 04:01N 55°23' E 014°41'917.8
2019-Jul-19 03:30N 55°17' E 014°30'917.6
2019-Jul-19 03:01N 55°11' E 014°18'917.2
2019-Jul-19 02:30N 55°10' E 014°03'917.2
2019-Jul-19 02:00N 55°11' E 013°48'917.2
2019-Jul-19 01:30N 55°12' E 013°33'917.4
2019-Jul-19 01:00N 55°13' E 013°18'917.4
2019-Jul-19 00:30N 55°14' E 013°02'917.5
2019-Jul-19 00:00N 55°16' E 012°48'713.7
2019-Jul-18 23:30N 55°20' E 012°38'815.1
2019-Jul-18 23:00N 55°27' E 012°41'611.7
2019-Jul-18 22:31N 55°33' E 012°42'5 9.5
2019-Jul-18 22:01N 55°37' E 012°42'5 9.7
2019-Jul-18 21:31N 55°42' E 012°41'3 5.4
2019-Jul-18 21:01N 55°42' E 012°36'0 0.6
2019-Jul-18 20:29N 55°42' E 012°36'0 0.0
2019-Jul-18 19:59N 55°42' E 012°36'0 0.0
2019-Jul-18 19:29N 55°42' E 012°36'611.9
2019-Jul-18 19:00N 55°36' E 012°36'6654.8 180 / 81014.810.8 24.011.720.0
2019-Jul-18 18:59N 55°42' E 012°36'0 0.0
2019-Jul-18 18:29N 55°42' E 012°36'611.9
2019-Jul-18 18:00N 55°36' E 012°36'6616.2 180 / 81014.510.8 17.013.5
2019-Jul-18 17:59N 55°42' E 012°36'0 0.0
2019-Jul-18 17:29N 55°42' E 012°36'0 0.0
2019-Jul-18 16:59N 55°42' E 012°36'0 0.0
2019-Jul-18 16:29N 55°42' E 012°36'0 0.0
2019-Jul-18 15:59N 55°42' E 012°36'0 0.0
2019-Jul-18 15:29N 55°42' E 012°36'0 0.0
2019-Jul-18 14:59N 55°42' E 012°36'0 0.0
2019-Jul-18 14:29N 55°42' E 012°36'0 0.0
2019-Jul-18 13:59N 55°42' E 012°36'0 0.0
2019-Jul-18 13:29N 55°42' E 012°36'0 0.0
2019-Jul-18 12:59N 55°42' E 012°36'0 0.0
2019-Jul-18 12:29N 55°42' E 012°36'0 0.0
2019-Jul-18 11:59N 55°42' E 012°36'0 0.0
2019-Jul-18 11:29N 55°42' E 012°36'0 0.0
2019-Jul-18 10:59N 55°42' E 012°36'0 0.0
2019-Jul-18 10:29N 55°42' E 012°36'0 0.0
2019-Jul-18 09:59N 55°42' E 012°36'0 0.0
2019-Jul-18 09:29N 55°42' E 012°36'0 0.0
2019-Jul-18 08:59N 55°42' E 012°36'0 0.0
2019-Jul-18 08:29N 55°42' E 012°36'0 0.0
2019-Jul-18 07:59N 55°42' E 012°36'1 2.7
2019-Jul-18 07:31N 55°43' E 012°38'612.9
2019-Jul-18 07:00N 55°49' E 012°42'815.9
2019-Jul-18 06:30N 55°56' E 012°39'714.5
2019-Jul-18 06:00N 56°04' E 012°38'713.3
2019-Jul-18 05:30N 56°08' E 012°29'5 9.8
2019-Jul-18 05:00N 56°11' E 012°21'1213.8
2019-Jul-18 04:07N 56°18' E 012°04'2315.0
2019-Jul-18 02:34N 56°40' E 011°52'215.4
2019-Jul-18 02:26N 56°42' E 011°52'2216.0
2019-Jul-18 01:05N 57°03' E 011°41'1017.5
2019-Jul-18 00:31N 57°12' E 011°34'016.8
2019-Jul-18 00:30N 57°13' E 011°34'917.2
2019-Jul-18 00:00N 57°21' E 011°29'817.1
2019-Jul-17 23:30N 57°29' E 011°23'917.3
2019-Jul-17 23:00N 57°34' E 011°11'917.4
2019-Jul-17 22:30N 57°40' E 010°59'917.4
2019-Jul-17 22:00N 57°46' E 010°47'918.1
2019-Jul-17 21:31N 57°50' E 010°32'918.7
2019-Jul-17 21:00N 57°49' E 010°14'918.2
2019-Jul-17 20:31N 57°47' E 009°57'918.2
2019-Jul-17 20:00N 57°43' E 009°42'918.0
2019-Jul-17 19:30N 57°39' E 009°27'917.9
2019-Jul-17 19:00N 57°34' E 009°13'917.8
2019-Jul-17 18:30N 57°30' E 008°58'918.0
2019-Jul-17 18:00N 57°26' E 008°44'918.2
2019-Jul-17 17:30N 57°21' E 008°29'918.1
2019-Jul-17 17:00N 57°16' E 008°15'918.5
2019-Jul-17 16:30N 57°09' E 008°03'918.1
2019-Jul-17 16:00N 57°02' E 007°53'918.2
2019-Jul-17 15:30N 56°55' E 007°44'918.0
2019-Jul-17 15:00N 56°47' E 007°35'1017.9
2019-Jul-17 14:28N 56°39' E 007°26'1317.9
2019-Jul-17 13:42N 56°27' E 007°13'417.8
2019-Jul-17 13:29N 56°24' E 007°09'917.8
2019-Jul-17 12:59N 56°16' E 007°01'917.9
2019-Jul-17 12:30N 56°09' E 006°53'917.8
2019-Jul-17 11:58N 56°01' E 006°44'20619.2
2019-Jul-17 01:13N 53°09' E 003°28'419.5
2019-Jul-17 01:00N 53°05' E 003°25'1019.3
2019-Jul-17 00:30N 52°56' E 003°20'918.8
2019-Jul-17 00:00N 52°47' E 003°14'918.8
2019-Jul-16 23:30N 52°39' E 003°07'918.6
2019-Jul-16 23:01N 52°31' E 002°60'918.1
2019-Jul-16 22:30N 52°22' E 002°54'917.8
2019-Jul-16 22:00N 52°15' E 002°47'917.6
2019-Jul-16 21:30N 52°07' E 002°41'917.4
2019-Jul-16 21:00N 51°58' E 002°38'816.3
2019-Jul-16 20:30N 51°50' E 002°40'917.3
2019-Jul-16 20:00N 51°44' E 002°31'917.4
2019-Jul-16 19:31N 51°37' E 002°22'917.4
2019-Jul-16 19:00N 51°30' E 002°14'917.7
2019-Jul-16 18:30N 51°24' E 002°04'917.8
2019-Jul-16 18:00N 51°17' E 001°55'917.8
2019-Jul-16 17:30N 51°10' E 001°46'917.8
2019-Jul-16 17:00N 51°03' E 001°37'714.4
2019-Jul-16 16:31N 51°03' E 001°26'5 3.3
2019-Jul-16 14:57N 51°07' E 001°19'0 0.0
2019-Jul-16 14:24N 51°07' E 001°19'0 0.0
2019-Jul-16 13:48N 51°07' E 001°19'0 0.0
2019-Jul-16 12:39N 51°07' E 001°19'0 0.0
2019-Jul-16 12:09N 51°07' E 001°19'0 0.0
2019-Jul-16 11:54N 51°07' E 001°19'0 0.0
2019-Jul-16 11:30N 51°07' E 001°19'0 0.0
2019-Jul-16 10:51N 51°07' E 001°19'0 0.0
2019-Jul-16 10:30N 51°07' E 001°19'0 0.0
2019-Jul-16 09:51N 51°07' E 001°19'0 0.0
2019-Jul-16 09:30N 51°07' E 001°19'0 0.0
2019-Jul-16 08:33N 51°07' E 001°19'0 0.0
2019-Jul-16 08:27N 51°07' E 001°19'0 0.0
2019-Jul-16 07:51N 51°07' E 001°19'0 0.0
2019-Jul-16 07:18N 51°07' E 001°19'0 0.0
2019-Jul-16 06:36N 51°07' E 001°19'0 0.0
2019-Jul-16 06:30N 51°07' E 001°19'0 0.0
2019-Jul-16 06:00N 51°07' E 001°19'0 0.0
2019-Jul-16 05:30N 51°07' E 001°19'0 0.0
2019-Jul-16 04:51N 51°07' E 001°19'0 0.1
2019-Jul-16 04:27N 51°07' E 001°19'2 4.6
2019-Jul-16 03:58N 51°08' E 001°23'510.5
2019-Jul-16 03:30N 51°08' E 001°30'815.6
2019-Jul-16 03:00N 51°12' E 001°41'816.0
2019-Jul-16 02:30N 51°19' E 001°48'816.1
2019-Jul-16 02:00N 51°26' E 001°53'815.9
2019-Jul-16 01:30N 51°32' E 002°01'815.7
2019-Jul-16 01:00N 51°38' E 002°10'915.0
2019-Jul-16 00:23N 51°45' E 002°20'613.6
2019-Jul-15 23:54N 51°50' E 002°27'614.0
2019-Jul-15 23:30N 51°54' E 002°33'714.5
2019-Jul-15 23:00N 52°01' E 002°35'715.3
2019-Jul-15 22:30N 52°09' E 002°36'815.9
2019-Jul-15 22:00N 52°17' E 002°38'816.1
2019-Jul-15 21:30N 52°24' E 002°40'816.1
2019-Jul-15 21:00N 52°32' E 002°39'816.4
2019-Jul-15 20:30N 52°41' E 002°38'816.4
2019-Jul-15 20:00N 52°49' E 002°38'816.4
2019-Jul-15 19:30N 52°57' E 002°38'916.2
2019-Jul-15 18:56N 53°06' E 002°38'815.6
2019-Jul-15 18:27N 53°13' E 002°42'715.2
2019-Jul-15 17:58N 53°20' E 002°47'814.9
2019-Jul-15 17:27N 53°28' E 002°51'1314.6
2019-Jul-15 16:35N 53°39' E 002°59'114.6
2019-Jul-15 16:29N 53°41' E 002°59'2114.5
2019-Jul-15 15:02N 53°60' E 003°14'15814.6
2019-Jul-15 04:13N 56°37' E 003°49'414.7
2019-Jul-15 03:56N 56°41' E 003°50'714.6
2019-Jul-15 03:29N 56°48' E 003°51'714.7
2019-Jul-15 02:59N 56°54' E 003°55'914.6
2019-Jul-15 02:21N 57°03' E 004°00'514.7
2019-Jul-15 02:00N 57°08' E 004°03'914.8
2019-Jul-15 01:22N 57°17' E 004°09'614.8
2019-Jul-15 00:59N 57°23' E 004°12'714.9
2019-Jul-15 00:29N 57°30' E 004°17'715.0
2019-Jul-15 00:00N 57°36' E 004°20'815.2
2019-Jul-14 23:30N 57°44' E 004°24'715.2
2019-Jul-14 23:00N 57°51' E 004°28'815.1
2019-Jul-14 22:30N 57°58' E 004°32'814.8
2019-Jul-14 21:59N 58°06' E 004°36'714.5
2019-Jul-14 21:30N 58°12' E 004°40'714.5
2019-Jul-14 21:00N 58°19' E 004°44'815.3
2019-Jul-14 20:29N 58°27' E 004°49'715.1
2019-Jul-14 20:00N 58°34' E 004°53'714.8
2019-Jul-14 19:30N 58°41' E 004°57'714.8
2019-Jul-14 19:00N 58°48' E 005°01'714.5
2019-Jul-14 18:30N 58°55' E 005°05'713.7
2019-Jul-14 18:00N 59°01' E 005°09'714.8
2019-Jul-14 17:30N 59°06' E 005°20'815.1
2019-Jul-14 17:00N 59°14' E 005°20'613.2
2019-Jul-14 16:30N 59°20' E 005°19'5 9.1
2019-Jul-14 16:01N 59°25' E 005°15'0 0.2
2019-Jul-14 15:28N 59°25' E 005°15'0 0.0
2019-Jul-14 14:58N 59°25' E 005°15'0 0.0
2019-Jul-14 14:28N 59°25' E 005°15'0 0.0
2019-Jul-14 13:58N 59°25' E 005°15'0 0.0
2019-Jul-14 13:28N 59°25' E 005°15'0 0.0
2019-Jul-14 12:58N 59°25' E 005°15'0 0.0
2019-Jul-14 12:28N 59°25' E 005°15'0 0.0
2019-Jul-14 11:58N 59°25' E 005°15'0 0.0
2019-Jul-14 11:28N 59°25' E 005°15'0 0.0
2019-Jul-14 10:58N 59°25' E 005°15'0 0.0
2019-Jul-14 10:28N 59°25' E 005°15'0 0.0
2019-Jul-14 09:58N 59°25' E 005°15'0 0.0
2019-Jul-14 09:28N 59°25' E 005°15'0 0.0
2019-Jul-14 08:58N 59°25' E 005°15'0 0.0
2019-Jul-14 08:28N 59°25' E 005°15'0 0.0
2019-Jul-14 07:58N 59°25' E 005°15'0 0.0
2019-Jul-14 07:28N 59°25' E 005°15'0 0.0
2019-Jul-14 06:58N 59°25' E 005°15'0 0.0
2019-Jul-14 06:28N 59°25' E 005°15'0 0.0
2019-Jul-14 05:58N 59°25' E 005°15'0 0.5
2019-Jul-14 05:30N 59°25' E 005°15'510.0
2019-Jul-14 05:00N 59°28' E 005°08'815.4
2019-Jul-14 04:31N 59°34' E 004°58'917.5
2019-Jul-14 04:00N 59°41' E 004°48'917.7
2019-Jul-14 03:30N 59°49' E 004°38'917.4
2019-Jul-14 03:00N 59°56' E 004°29'917.4
2019-Jul-14 02:30N 60°03' E 004°18'917.5
2019-Jul-14 02:00N 60°10' E 004°09'917.1
2019-Jul-14 01:30N 60°18' E 004°02'917.6
2019-Jul-14 01:00N 60°27' E 004°04'917.9
2019-Jul-14 00:30N 60°35' E 004°12'918.1
2019-Jul-14 00:00N 60°43' E 004°22'918.2
2019-Jul-13 23:30N 60°50' E 004°33'917.3
2019-Jul-13 23:00N 60°57' E 004°42'1019.9
2019-Jul-13 22:30N 61°03' E 004°58'917.5
2019-Jul-13 22:00N 61°05' E 005°16'815.9
2019-Jul-13 21:30N 61°05' E 005°32'816.7
2019-Jul-13 21:00N 61°08' E 005°48'816.2
2019-Jul-13 20:30N 61°08' E 006°05'815.3
2019-Jul-13 20:00N 61°06' E 006°20'714.3
2019-Jul-13 19:30N 61°08' E 006°35'5 9.6
2019-Jul-13 19:00N 61°10' E 006°43'815.3
2019-Jul-13 18:30N 61°06' E 006°57'816.2
2019-Jul-13 18:00N 61°09' E 007°13'612.0
2019-Jul-13 17:30N 61°12' E 007°23'713.2
2019-Jul-13 17:00N 61°18' E 007°18'916.6
2019-Jul-13 16:30N 61°25' E 007°28'5 9.9
2019-Jul-13 15:59N 61°29' E 007°35'0 0.0
2019-Jul-13 15:30N 61°29' E 007°35'0 0.0
2019-Jul-13 15:00N 61°29' E 007°35'0 0.0
2019-Jul-13 14:29N 61°29' E 007°35'0 0.0
2019-Jul-13 14:00N 61°29' E 007°35'0 0.0
2019-Jul-13 13:30N 61°29' E 007°35'0 0.0
2019-Jul-13 12:59N 61°29' E 007°35'0 0.0
2019-Jul-13 12:30N 61°29' E 007°35'0 0.0
2019-Jul-13 11:59N 61°29' E 007°35'0 0.0
2019-Jul-13 11:30N 61°29' E 007°35'0 0.0
2019-Jul-13 11:00N 61°29' E 007°35'0 0.0
2019-Jul-13 10:30N 61°29' E 007°35'0 0.0
2019-Jul-13 09:59N 61°29' E 007°35'0 0.0
2019-Jul-13 09:30N 61°29' E 007°35'0 0.0
2019-Jul-13 09:00N 61°29' E 007°35'0 0.0
2019-Jul-13 08:30N 61°29' E 007°35'0 0.0
2019-Jul-13 08:00N 61°29' E 007°35'0 0.0
2019-Jul-13 07:30N 61°29' E 007°35'0 0.0
2019-Jul-13 06:59N 61°29' E 007°35'0 0.5
2019-Jul-13 06:31N 61°29' E 007°35'5 9.4
2019-Jul-13 06:00N 61°26' E 007°28'713.4
2019-Jul-13 05:30N 61°20' E 007°21'611.3
2019-Jul-13 05:00N 61°14' E 007°22'611.3
2019-Jul-13 04:30N 61°09' E 007°18'815.2
2019-Jul-13 04:00N 61°07' E 007°03'713.9
2019-Jul-13 03:30N 61°10' E 006°50'713.6
2019-Jul-13 03:00N 61°10' E 006°36'815.8
2019-Jul-13 02:30N 61°06' E 006°22'918.3
2019-Jul-13 02:00N 61°08' E 006°03'918.0
2019-Jul-13 01:30N 61°08' E 005°44'918.0
2019-Jul-13 01:00N 61°04' E 005°28'816.7
2019-Jul-13 00:30N 61°06' E 005°11'916.5
2019-Jul-12 23:59N 61°02' E 004°56'816.7
2019-Jul-12 23:30N 60°57' E 004°42'612.5
2019-Jul-12 23:00N 60°52' E 004°36'612.6
2019-Jul-12 22:30N 60°53' E 004°24'916.9
2019-Jul-12 22:00N 61°00' E 004°13'817.3
2019-Jul-12 21:31N 61°08' E 004°05'917.2
2019-Jul-12 21:00N 61°16' E 004°02'917.9
2019-Jul-12 20:30N 61°25' E 004°02'918.0
2019-Jul-12 20:00N 61°34' E 004°02'918.2
2019-Jul-12 19:31N 61°43' E 004°02'918.0
2019-Jul-12 19:00N 61°52' E 004°02'917.5
2019-Jul-12 18:30N 62°01' E 004°03'815.7
2019-Jul-12 18:01N 62°08' E 004°10'918.0
2019-Jul-12 17:30N 62°12' E 004°27'917.8
2019-Jul-12 17:00N 62°16' E 004°44'917.7
2019-Jul-12 16:30N 62°21' E 005°01'917.7
2019-Jul-12 16:00N 62°25' E 005°18'918.1
2019-Jul-12 15:29N 62°29' E 005°35'816.0
2019-Jul-12 15:00N 62°28' E 005°52'714.2
2019-Jul-12 14:30N 62°27' E 006°07'2 3.0
2019-Jul-12 13:58N 62°28' E 006°09'0 0.0
2019-Jul-12 13:28N 62°28' E 006°09'0 0.0
2019-Jul-12 12:58N 62°28' E 006°09'0 0.0
2019-Jul-12 12:28N 62°28' E 006°09'0 0.0
2019-Jul-12 11:58N 62°28' E 006°09'0 0.0
2019-Jul-12 11:28N 62°28' E 006°09'0 0.0
2019-Jul-12 10:58N 62°28' E 006°09'0 0.0
2019-Jul-12 10:28N 62°28' E 006°09'0 0.0
2019-Jul-12 09:58N 62°28' E 006°09'0 0.0
2019-Jul-12 09:28N 62°28' E 006°09'0 0.0
2019-Jul-12 08:58N 62°28' E 006°09'0 0.0
2019-Jul-12 08:28N 62°28' E 006°09'0 0.0
2019-Jul-12 07:58N 62°28' E 006°09'0 0.0
2019-Jul-12 07:28N 62°28' E 006°09'0 0.0
2019-Jul-12 06:58N 62°28' E 006°09'0 0.0
2019-Jul-12 06:28N 62°28' E 006°09'0 0.0
2019-Jul-12 05:58N 62°28' E 006°09'0 0.0
2019-Jul-12 05:28N 62°28' E 006°09'0 0.0
2019-Jul-12 04:58N 62°28' E 006°09'0 0.7
2019-Jul-12 04:30N 62°28' E 006°09'3 5.8
2019-Jul-12 04:00N 62°27' E 006°04'610.7
2019-Jul-12 03:29N 62°28' E 005°52'613.3
2019-Jul-12 03:00N 62°32' E 005°41'714.6
2019-Jul-12 02:30N 62°39' E 005°40'1615.6
2019-Jul-12 01:30N 62°55' E 005°45'815.0
2019-Jul-12 01:00N 62°60' E 005°57'715.0
2019-Jul-12 00:30N 63°05' E 006°10'714.5
2019-Jul-12 00:00N 63°08' E 006°24'917.1
2019-Jul-11 23:30N 63°10' E 006°42'917.3
2019-Jul-11 23:00N 63°12' E 007°01'917.2
2019-Jul-11 22:30N 63°14' E 007°19'917.6
2019-Jul-11 22:00N 63°15' E 007°39'611.7
2019-Jul-11 21:30N 63°13' E 007°51'918.1
2019-Jul-11 21:00N 63°17' E 008°10'918.3
2019-Jul-11 20:29N 63°23' E 008°26'918.3
2019-Jul-11 20:00N 63°26' E 008°44'918.0
2019-Jul-11 19:30N 63°30' E 009°03'918.2
2019-Jul-11 19:00N 63°34' E 009°21'918.1
2019-Jul-11 18:30N 63°38' E 009°38'713.1
2019-Jul-11 18:00N 63°34' E 009°50'815.9
2019-Jul-11 17:30N 63°28' E 010°01'816.6
2019-Jul-11 17:00N 63°28' E 010°20'2 3.7
2019-Jul-11 16:30N 63°26' E 010°22'0 0.0
2019-Jul-11 16:00N 63°26' E 010°22'0 0.0
2019-Jul-11 15:30N 63°26' E 010°22'0 0.0
2019-Jul-11 15:00N 63°26' E 010°22'0 0.0
2019-Jul-11 14:30N 63°26' E 010°22'0 0.0
2019-Jul-11 14:00N 63°26' E 010°22'0 0.0
2019-Jul-11 13:30N 63°26' E 010°22'0 0.0
2019-Jul-11 13:00N 63°26' E 010°22'0 0.0
2019-Jul-11 12:30N 63°26' E 010°22'0 0.0
2019-Jul-11 12:00N 63°26' E 010°22'0 0.0
2019-Jul-11 11:27N 63°26' E 010°22'0 0.0
2019-Jul-11 11:00N 63°26' E 010°22'0 0.0
2019-Jul-11 10:18N 63°26' E 010°22'0 0.0
2019-Jul-11 09:57N 63°26' E 010°22'0 0.0
2019-Jul-11 09:30N 63°26' E 010°22'0 0.0
2019-Jul-11 08:51N 63°26' E 010°22'0 0.0
2019-Jul-11 08:27N 63°26' E 010°22'0 0.0
2019-Jul-11 08:00N 63°26' E 010°22'0 0.4
2019-Jul-11 07:30N 63°26' E 010°22'1911.1
2019-Jul-11 05:47N 63°38' E 009°47'412.6
2019-Jul-11 05:30N 63°40' E 009°41'714.4
2019-Jul-11 05:00N 63°37' E 009°25'611.9
2019-Jul-11 04:30N 63°40' E 009°14'  
Track history (hours):
 
Tides and Currents Weather Stations Pressure Air Temp Water Temp Dewpoint Dewpoint Depression Visibility Wind Speed Wind Dir Waves Ship Positions

Pacific Princess (Bermuda)

Last reported at 2019-Jul-20 05:00 UTC. Time now 2019-Jul-20 13:29 UTC.
Position N 56°54' E 024°00'.

Length 180.5 m; beam 25.6 m; draft 6 m.

Type: Passenger vessel. MMSI: 310504000.

Wind from 270 at 5 knots

Barometer 1017.6 mb
Air temperature 18.0 ° C
Visibility: greater than 10.8 NM
Dewpoint 15.5 ° C
Water temperature 18.0 ° C

Date/timePositionNaut miles runAvg speedWind from/ knotsBaromVisibWave heightAir tempDewpointWater temp
2019-Jul-20 05:00N 56°54' E 024°00'51 9.2 270 / 51017.610.8 18.015.518.0
2019-Jul-19 23:28N 57°35' E 023°05'1715.7
2019-Jul-19 22:25N 57°47' E 022°44'614.4
2019-Jul-19 22:00N 57°50' E 022°34'815.2
2019-Jul-19 21:30N 57°47' E 022°21'815.2
2019-Jul-19 21:00N 57°43' E 022°09'714.7
2019-Jul-19 20:30N 57°40' E 021°57'714.4
2019-Jul-19 20:01N 57°39' E 021°43'612.3
2019-Jul-19 19:30N 57°37' E 021°32'914.9
2019-Jul-19 18:52N 57°31' E 021°19'815.2
2019-Jul-19 18:21N 57°26' E 021°08'1130.1
2019-Jul-19 18:00N 57°18' E 020°54'133132.7 320 / 61014.110.8 19.014.718.0
2019-Jul-19 17:00N 55°06' E 020°30'9516.9 320 / 81016.710.8 18.016.318.0
2019-Jul-19 11:23N 56°06' E 018°19'718.1
2019-Jul-19 11:00N 56°02' E 018°09'918.0
2019-Jul-19 10:30N 55°57' E 017°56'917.7
2019-Jul-19 10:00N 55°54' E 017°41'917.7
2019-Jul-19 09:30N 55°51' E 017°26'1917.5
2019-Jul-19 08:24N 55°46' E 016°53'717.4
2019-Jul-19 08:01N 55°45' E 016°41'917.7
2019-Jul-19 07:31N 55°43' E 016°26'918.0
2019-Jul-19 07:01N 55°40' E 016°10'918.0
2019-Jul-19 06:31N 55°38' E 015°55'917.9
2019-Jul-19 06:01N 55°36' E 015°39'917.9
2019-Jul-19 05:31N 55°33' E 015°24'917.7
2019-Jul-19 05:00N 55°30' E 015°10'11687.2
2019-Jul-19 05:00N 55°24' E 014°54'2 4.4 140 / 111014.710.8 18.016.318.0
2019-Jul-19 04:31N 55°26' E 014°56'917.7
2019-Jul-19 04:01N 55°23' E 014°41'917.8
2019-Jul-19 03:30N 55°17' E 014°30'917.6
2019-Jul-19 03:01N 55°11' E 014°18'917.2
2019-Jul-19 02:30N 55°10' E 014°03'917.2
2019-Jul-19 02:00N 55°11' E 013°48'917.2
2019-Jul-19 01:30N 55°12' E 013°33'917.4
2019-Jul-19 01:00N 55°13' E 013°18'917.4
2019-Jul-19 00:30N 55°14' E 013°02'917.5
2019-Jul-19 00:00N 55°16' E 012°48'713.7
2019-Jul-18 23:30N 55°20' E 012°38'815.1
2019-Jul-18 23:00N 55°27' E 012°41'611.7
2019-Jul-18 22:31N 55°33' E 012°42'5 9.5
2019-Jul-18 22:01N 55°37' E 012°42'5 9.7
2019-Jul-18 21:31N 55°42' E 012°41'3 5.4
2019-Jul-18 21:01N 55°42' E 012°36'0 0.6
2019-Jul-18 20:29N 55°42' E 012°36'0 0.0
2019-Jul-18 19:59N 55°42' E 012°36'0 0.0
2019-Jul-18 19:29N 55°42' E 012°36'611.9
2019-Jul-18 19:00N 55°36' E 012°36'6654.8 180 / 81014.810.8 24.011.720.0
2019-Jul-18 18:59N 55°42' E 012°36'0 0.0
2019-Jul-18 18:29N 55°42' E 012°36'611.9
2019-Jul-18 18:00N 55°36' E 012°36'6616.2 180 / 81014.510.8 17.013.5
2019-Jul-18 17:59N 55°42' E 012°36'0 0.0
2019-Jul-18 17:29N 55°42' E 012°36'0 0.0
2019-Jul-18 16:59N 55°42' E 012°36'0 0.0
2019-Jul-18 16:29N 55°42' E 012°36'0 0.0
2019-Jul-18 15:59N 55°42' E 012°36'0 0.0
2019-Jul-18 15:29N 55°42' E 012°36'0 0.0
2019-Jul-18 14:59N 55°42' E 012°36'0 0.0
2019-Jul-18 14:29N 55°42' E 012°36'0 0.0
2019-Jul-18 13:59N 55°42' E 012°36'0 0.0
2019-Jul-18 13:29N 55°42' E 012°36'0 0.0
2019-Jul-18 12:59N 55°42' E 012°36'0 0.0
2019-Jul-18 12:29N 55°42' E 012°36'0 0.0
2019-Jul-18 11:59N 55°42' E 012°36'0 0.0
2019-Jul-18 11:29N 55°42' E 012°36'0 0.0
2019-Jul-18 10:59N 55°42' E 012°36'0 0.0
2019-Jul-18 10:29N 55°42' E 012°36'0 0.0
2019-Jul-18 09:59N 55°42' E 012°36'0 0.0
2019-Jul-18 09:29N 55°42' E 012°36'0 0.0
2019-Jul-18 08:59N 55°42' E 012°36'0 0.0
2019-Jul-18 08:29N 55°42' E 012°36'0 0.0
2019-Jul-18 07:59N 55°42' E 012°36'1 2.7
2019-Jul-18 07:31N 55°43' E 012°38'612.9
2019-Jul-18 07:00N 55°49' E 012°42'815.9
2019-Jul-18 06:30N 55°56' E 012°39'714.5
2019-Jul-18 06:00N 56°04' E 012°38'713.3
2019-Jul-18 05:30N 56°08' E 012°29'5 9.8
2019-Jul-18 05:00N 56°11' E 012°21'1213.8
2019-Jul-18 04:07N 56°18' E 012°04'2315.0
2019-Jul-18 02:34N 56°40' E 011°52'215.4
2019-Jul-18 02:26N 56°42' E 011°52'2216.0
2019-Jul-18 01:05N 57°03' E 011°41'1017.5
2019-Jul-18 00:31N 57°12' E 011°34'016.8
2019-Jul-18 00:30N 57°13' E 011°34'917.2
2019-Jul-18 00:00N 57°21' E 011°29'817.1
2019-Jul-17 23:30N 57°29' E 011°23'917.3
2019-Jul-17 23:00N 57°34' E 011°11'917.4
2019-Jul-17 22:30N 57°40' E 010°59'917.4
2019-Jul-17 22:00N 57°46' E 010°47'918.1
2019-Jul-17 21:31N 57°50' E 010°32'918.7
2019-Jul-17 21:00N 57°49' E 010°14'918.2
2019-Jul-17 20:31N 57°47' E 009°57'918.2
2019-Jul-17 20:00N 57°43' E 009°42'918.0
2019-Jul-17 19:30N 57°39' E 009°27'917.9
2019-Jul-17 19:00N 57°34' E 009°13'917.8
2019-Jul-17 18:30N 57°30' E 008°58'918.0
2019-Jul-17 18:00N 57°26' E 008°44'918.2
2019-Jul-17 17:30N 57°21' E 008°29'918.1
2019-Jul-17 17:00N 57°16' E 008°15'918.5
2019-Jul-17 16:30N 57°09' E 008°03'918.1
2019-Jul-17 16:00N 57°02' E 007°53'918.2
2019-Jul-17 15:30N 56°55' E 007°44'918.0
2019-Jul-17 15:00N 56°47' E 007°35'1017.9
2019-Jul-17 14:28N 56°39' E 007°26'1317.9
2019-Jul-17 13:42N 56°27' E 007°13'417.8
2019-Jul-17 13:29N 56°24' E 007°09'917.8
2019-Jul-17 12:59N 56°16' E 007°01'917.9
2019-Jul-17 12:30N 56°09' E 006°53'917.8
2019-Jul-17 11:58N 56°01' E 006°44'20619.2
2019-Jul-17 01:13N 53°09' E 003°28'419.5
2019-Jul-17 01:00N 53°05' E 003°25'1019.3
2019-Jul-17 00:30N 52°56' E 003°20'918.8
2019-Jul-17 00:00N 52°47' E 003°14'918.8
2019-Jul-16 23:30N 52°39' E 003°07'918.6
2019-Jul-16 23:01N 52°31' E 002°60'918.1
2019-Jul-16 22:30N 52°22' E 002°54'917.8
2019-Jul-16 22:00N 52°15' E 002°47'917.6
2019-Jul-16 21:30N 52°07' E 002°41'917.4
2019-Jul-16 21:00N 51°58' E 002°38'816.3
2019-Jul-16 20:30N 51°50' E 002°40'917.3
2019-Jul-16 20:00N 51°44' E 002°31'917.4
2019-Jul-16 19:31N 51°37' E 002°22'917.4
2019-Jul-16 19:00N 51°30' E 002°14'917.7
2019-Jul-16 18:30N 51°24' E 002°04'917.8
2019-Jul-16 18:00N 51°17' E 001°55'917.8
2019-Jul-16 17:30N 51°10' E 001°46'917.8
2019-Jul-16 17:00N 51°03' E 001°37'714.4
2019-Jul-16 16:31N 51°03' E 001°26'5 3.3
2019-Jul-16 14:57N 51°07' E 001°19'0 0.0
2019-Jul-16 14:24N 51°07' E 001°19'0 0.0
2019-Jul-16 13:48N 51°07' E 001°19'0 0.0
2019-Jul-16 12:39N 51°07' E 001°19'0 0.0
2019-Jul-16 12:09N 51°07' E 001°19'0 0.0
2019-Jul-16 11:54N 51°07' E 001°19'0 0.0
2019-Jul-16 11:30N 51°07' E 001°19'0 0.0
2019-Jul-16 10:51N 51°07' E 001°19'0 0.0
2019-Jul-16 10:30N 51°07' E 001°19'0 0.0
2019-Jul-16 09:51N 51°07' E 001°19'0 0.0
2019-Jul-16 09:30N 51°07' E 001°19'0 0.0
2019-Jul-16 08:33N 51°07' E 001°19'0 0.0
2019-Jul-16 08:27N 51°07' E 001°19'0 0.0
2019-Jul-16 07:51N 51°07' E 001°19'0 0.0
2019-Jul-16 07:18N 51°07' E 001°19'0 0.0
2019-Jul-16 06:36N 51°07' E 001°19'0 0.0
2019-Jul-16 06:30N 51°07' E 001°19'0 0.0
2019-Jul-16 06:00N 51°07' E 001°19'0 0.0
2019-Jul-16 05:30N 51°07' E 001°19'0 0.0
2019-Jul-16 04:51N 51°07' E 001°19'0 0.1
2019-Jul-16 04:27N 51°07' E 001°19'2 4.6
2019-Jul-16 03:58N 51°08' E 001°23'510.5
2019-Jul-16 03:30N 51°08' E 001°30'815.6
2019-Jul-16 03:00N 51°12' E 001°41'816.0
2019-Jul-16 02:30N 51°19' E 001°48'816.1
2019-Jul-16 02:00N 51°26' E 001°53'815.9
2019-Jul-16 01:30N 51°32' E 002°01'815.7
2019-Jul-16 01:00N 51°38' E 002°10'915.0
2019-Jul-16 00:23N 51°45' E 002°20'613.6
2019-Jul-15 23:54N 51°50' E 002°27'614.0
2019-Jul-15 23:30N 51°54' E 002°33'714.5
2019-Jul-15 23:00N 52°01' E 002°35'715.3
2019-Jul-15 22:30N 52°09' E 002°36'815.9
2019-Jul-15 22:00N 52°17' E 002°38'816.1
2019-Jul-15 21:30N 52°24' E 002°40'816.1
2019-Jul-15 21:00N 52°32' E 002°39'816.4
2019-Jul-15 20:30N 52°41' E 002°38'816.4
2019-Jul-15 20:00N 52°49' E 002°38'816.4
2019-Jul-15 19:30N 52°57' E 002°38'916.2
2019-Jul-15 18:56N 53°06' E 002°38'815.6
2019-Jul-15 18:27N 53°13' E 002°42'715.2
2019-Jul-15 17:58N 53°20' E 002°47'814.9
2019-Jul-15 17:27N 53°28' E 002°51'1314.6
2019-Jul-15 16:35N 53°39' E 002°59'114.6
2019-Jul-15 16:29N 53°41' E 002°59'2114.5
2019-Jul-15 15:02N 53°60' E 003°14'15814.6
2019-Jul-15 04:13N 56°37' E 003°49'414.7
2019-Jul-15 03:56N 56°41' E 003°50'714.6
2019-Jul-15 03:29N 56°48' E 003°51'714.7
2019-Jul-15 02:59N 56°54' E 003°55'914.6
2019-Jul-15 02:21N 57°03' E 004°00'514.7
2019-Jul-15 02:00N 57°08' E 004°03'914.8
2019-Jul-15 01:22N 57°17' E 004°09'614.8
2019-Jul-15 00:59N 57°23' E 004°12'714.9
2019-Jul-15 00:29N 57°30' E 004°17'715.0
2019-Jul-15 00:00N 57°36' E 004°20'815.2
2019-Jul-14 23:30N 57°44' E 004°24'715.2
2019-Jul-14 23:00N 57°51' E 004°28'815.1
2019-Jul-14 22:30N 57°58' E 004°32'814.8
2019-Jul-14 21:59N 58°06' E 004°36'714.5
2019-Jul-14 21:30N 58°12' E 004°40'714.5
2019-Jul-14 21:00N 58°19' E 004°44'815.3
2019-Jul-14 20:29N 58°27' E 004°49'715.1
2019-Jul-14 20:00N 58°34' E 004°53'714.8
2019-Jul-14 19:30N 58°41' E 004°57'714.8
2019-Jul-14 19:00N 58°48' E 005°01'714.5
2019-Jul-14 18:30N 58°55' E 005°05'713.7
2019-Jul-14 18:00N 59°01' E 005°09'714.8
2019-Jul-14 17:30N 59°06' E 005°20'815.1
2019-Jul-14 17:00N 59°14' E 005°20'613.2
2019-Jul-14 16:30N 59°20' E 005°19'5 9.1
2019-Jul-14 16:01N 59°25' E 005°15'0 0.2
2019-Jul-14 15:28N 59°25' E 005°15'0 0.0
2019-Jul-14 14:58N 59°25' E 005°15'0 0.0
2019-Jul-14 14:28N 59°25' E 005°15'0 0.0
2019-Jul-14 13:58N 59°25' E 005°15'0 0.0
2019-Jul-14 13:28N 59°25' E 005°15'0 0.0
2019-Jul-14 12:58N 59°25' E 005°15'0 0.0
2019-Jul-14 12:28N 59°25' E 005°15'0 0.0
2019-Jul-14 11:58N 59°25' E 005°15'0 0.0
2019-Jul-14 11:28N 59°25' E 005°15'0 0.0
2019-Jul-14 10:58N 59°25' E 005°15'0 0.0
2019-Jul-14 10:28N 59°25' E 005°15'0 0.0
2019-Jul-14 09:58N 59°25' E 005°15'0 0.0
2019-Jul-14 09:28N 59°25' E 005°15'0 0.0
2019-Jul-14 08:58N 59°25' E 005°15'0 0.0
2019-Jul-14 08:28N 59°25' E 005°15'0 0.0
2019-Jul-14 07:58N 59°25' E 005°15'0 0.0
2019-Jul-14 07:28N 59°25' E 005°15'0 0.0
2019-Jul-14 06:58N 59°25' E 005°15'0 0.0
2019-Jul-14 06:28N 59°25' E 005°15'0 0.0
2019-Jul-14 05:58N 59°25' E 005°15'0 0.5
2019-Jul-14 05:30N 59°25' E 005°15'510.0
2019-Jul-14 05:00N 59°28' E 005°08'815.4
2019-Jul-14 04:31N 59°34' E 004°58'917.5
2019-Jul-14 04:00N 59°41' E 004°48'917.7
2019-Jul-14 03:30N 59°49' E 004°38'917.4
2019-Jul-14 03:00N 59°56' E 004°29'917.4
2019-Jul-14 02:30N 60°03' E 004°18'917.5
2019-Jul-14 02:00N 60°10' E 004°09'917.1
2019-Jul-14 01:30N 60°18' E 004°02'917.6
2019-Jul-14 01:00N 60°27' E 004°04'917.9
2019-Jul-14 00:30N 60°35' E 004°12'918.1
2019-Jul-14 00:00N 60°43' E 004°22'918.2
2019-Jul-13 23:30N 60°50' E 004°33'917.3
2019-Jul-13 23:00N 60°57' E 004°42'1019.9
2019-Jul-13 22:30N 61°03' E 004°58'917.5
2019-Jul-13 22:00N 61°05' E 005°16'815.9
2019-Jul-13 21:30N 61°05' E 005°32'816.7
2019-Jul-13 21:00N 61°08' E 005°48'816.2
2019-Jul-13 20:30N 61°08' E 006°05'815.3
2019-Jul-13 20:00N 61°06' E 006°20'714.3
2019-Jul-13 19:30N 61°08' E 006°35'5 9.6
2019-Jul-13 19:00N 61°10' E 006°43'815.3
2019-Jul-13 18:30N 61°06' E 006°57'816.2
2019-Jul-13 18:00N 61°09' E 007°13'612.0
2019-Jul-13 17:30N 61°12' E 007°23'713.2
2019-Jul-13 17:00N 61°18' E 007°18'916.6
2019-Jul-13 16:30N 61°25' E 007°28'5 9.9
2019-Jul-13 15:59N 61°29' E 007°35'0 0.0
2019-Jul-13 15:30N 61°29' E 007°35'0 0.0
2019-Jul-13 15:00N 61°29' E 007°35'0 0.0
2019-Jul-13 14:29N 61°29' E 007°35'0 0.0
2019-Jul-13 14:00N 61°29' E 007°35'0 0.0
2019-Jul-13 13:30N 61°29' E 007°35'0 0.0
2019-Jul-13 12:59N 61°29' E 007°35'0 0.0
2019-Jul-13 12:30N 61°29' E 007°35'0 0.0
2019-Jul-13 11:59N 61°29' E 007°35'0 0.0
2019-Jul-13 11:30N 61°29' E 007°35'0 0.0
2019-Jul-13 11:00N 61°29' E 007°35'0 0.0
2019-Jul-13 10:30N 61°29' E 007°35'0 0.0
2019-Jul-13 09:59N 61°29' E 007°35'0 0.0
2019-Jul-13 09:30N 61°29' E 007°35'0 0.0
2019-Jul-13 09:00N 61°29' E 007°35'0 0.0
2019-Jul-13 08:30N 61°29' E 007°35'0 0.0
2019-Jul-13 08:00N 61°29' E 007°35'0 0.0
2019-Jul-13 07:30N 61°29' E 007°35'0 0.0
2019-Jul-13 06:59N 61°29' E 007°35'0 0.5
2019-Jul-13 06:31N 61°29' E 007°35'5 9.4
2019-Jul-13 06:00N 61°26' E 007°28'713.4
2019-Jul-13 05:30N 61°20' E 007°21'611.3
2019-Jul-13 05:00N 61°14' E 007°22'611.3
2019-Jul-13 04:30N 61°09' E 007°18'815.2
2019-Jul-13 04:00N 61°07' E 007°03'713.9
2019-Jul-13 03:30N 61°10' E 006°50'713.6
2019-Jul-13 03:00N 61°10' E 006°36'815.8
2019-Jul-13 02:30N 61°06' E 006°22'918.3
2019-Jul-13 02:00N 61°08' E 006°03'918.0
2019-Jul-13 01:30N 61°08' E 005°44'918.0
2019-Jul-13 01:00N 61°04' E 005°28'816.7
2019-Jul-13 00:30N 61°06' E 005°11'916.5
2019-Jul-12 23:59N 61°02' E 004°56'816.7
2019-Jul-12 23:30N 60°57' E 004°42'612.5
2019-Jul-12 23:00N 60°52' E 004°36'612.6
2019-Jul-12 22:30N 60°53' E 004°24'916.9
2019-Jul-12 22:00N 61°00' E 004°13'817.3
2019-Jul-12 21:31N 61°08' E 004°05'917.2
2019-Jul-12 21:00N 61°16' E 004°02'917.9
2019-Jul-12 20:30N 61°25' E 004°02'918.0
2019-Jul-12 20:00N 61°34' E 004°02'918.2
2019-Jul-12 19:31N 61°43' E 004°02'918.0
2019-Jul-12 19:00N 61°52' E 004°02'917.5
2019-Jul-12 18:30N 62°01' E 004°03'815.7
2019-Jul-12 18:01N 62°08' E 004°10'918.0
2019-Jul-12 17:30N 62°12' E 004°27'917.8
2019-Jul-12 17:00N 62°16' E 004°44'917.7
2019-Jul-12 16:30N 62°21' E 005°01'917.7
2019-Jul-12 16:00N 62°25' E 005°18'918.1
2019-Jul-12 15:29N 62°29' E 005°35'816.0
2019-Jul-12 15:00N 62°28' E 005°52'714.2
2019-Jul-12 14:30N 62°27' E 006°07'2 3.0
2019-Jul-12 13:58N 62°28' E 006°09'0 0.0
2019-Jul-12 13:28N 62°28' E 006°09'0 0.0
2019-Jul-12 12:58N 62°28' E 006°09'0 0.0
2019-Jul-12 12:28N 62°28' E 006°09'0 0.0
2019-Jul-12 11:58N 62°28' E 006°09'0 0.0
2019-Jul-12 11:28N 62°28' E 006°09'0 0.0
2019-Jul-12 10:58N 62°28' E 006°09'0 0.0
2019-Jul-12 10:28N 62°28' E 006°09'0 0.0
2019-Jul-12 09:58N 62°28' E 006°09'0 0.0
2019-Jul-12 09:28N 62°28' E 006°09'0 0.0
2019-Jul-12 08:58N 62°28' E 006°09'0 0.0
2019-Jul-12 08:28N 62°28' E 006°09'0 0.0
2019-Jul-12 07:58N 62°28' E 006°09'0 0.0
2019-Jul-12 07:28N 62°28' E 006°09'0 0.0
2019-Jul-12 06:58N 62°28' E 006°09'0 0.0
2019-Jul-12 06:28N 62°28' E 006°09'0 0.0
2019-Jul-12 05:58N 62°28' E 006°09'0 0.0
2019-Jul-12 05:28N 62°28' E 006°09'0 0.0
2019-Jul-12 04:58N 62°28' E 006°09'0 0.7
2019-Jul-12 04:30N 62°28' E 006°09'3 5.8
2019-Jul-12 04:00N 62°27' E 006°04'610.7
2019-Jul-12 03:29N 62°28' E 005°52'613.3
2019-Jul-12 03:00N 62°32' E 005°41'714.6
2019-Jul-12 02:30N 62°39' E 005°40'1615.6
2019-Jul-12 01:30N 62°55' E 005°45'815.0
2019-Jul-12 01:00N 62°60' E 005°57'715.0
2019-Jul-12 00:30N 63°05' E 006°10'714.5
2019-Jul-12 00:00N 63°08' E 006°24'917.1
2019-Jul-11 23:30N 63°10' E 006°42'917.3
2019-Jul-11 23:00N 63°12' E 007°01'917.2
2019-Jul-11 22:30N 63°14' E 007°19'917.6
2019-Jul-11 22:00N 63°15' E 007°39'611.7
2019-Jul-11 21:30N 63°13' E 007°51'918.1
2019-Jul-11 21:00N 63°17' E 008°10'918.3
2019-Jul-11 20:29N 63°23' E 008°26'918.3
2019-Jul-11 20:00N 63°26' E 008°44'918.0
2019-Jul-11 19:30N 63°30' E 009°03'918.2
2019-Jul-11 19:00N 63°34' E 009°21'918.1
2019-Jul-11 18:30N 63°38' E 009°38'713.1
2019-Jul-11 18:00N 63°34' E 009°50'815.9
2019-Jul-11 17:30N 63°28' E 010°01'816.6
2019-Jul-11 17:00N 63°28' E 010°20'2 3.7
2019-Jul-11 16:30N 63°26' E 010°22'0 0.0
2019-Jul-11 16:00N 63°26' E 010°22'0 0.0
2019-Jul-11 15:30N 63°26' E 010°22'0 0.0
2019-Jul-11 15:00N 63°26' E 010°22'0 0.0
2019-Jul-11 14:30N 63°26' E 010°22'0 0.0
2019-Jul-11 14:00N 63°26' E 010°22'0 0.0
2019-Jul-11 13:30N 63°26' E 010°22'0 0.0
2019-Jul-11 13:00N 63°26' E 010°22'0 0.0
2019-Jul-11 12:30N 63°26' E 010°22'0 0.0
2019-Jul-11 12:00N 63°26' E 010°22'0 0.0
2019-Jul-11 11:27N 63°26' E 010°22'0 0.0
2019-Jul-11 11:00N 63°26' E 010°22'0 0.0
2019-Jul-11 10:18N 63°26' E 010°22'0 0.0
2019-Jul-11 09:57N 63°26' E 010°22'0 0.0
2019-Jul-11 09:30N 63°26' E 010°22'0 0.0
2019-Jul-11 08:51N 63°26' E 010°22'0 0.0
2019-Jul-11 08:27N 63°26' E 010°22'0 0.0
2019-Jul-11 08:00N 63°26' E 010°22'0 0.4
2019-Jul-11 07:30N 63°26' E 010°22'1911.1
2019-Jul-11 05:47N 63°38' E 009°47'412.6
2019-Jul-11 05:30N 63°40' E 009°41'714.4
2019-Jul-11 05:00N 63°37' E 009°25'611.9
2019-Jul-11 04:30N 63°40' E 009°14'  

Dump ship's entire track history